createdAt,value
2018-08-06T00:00:58.968Z,18.40
2018-08-06T00:03:27.580Z,18.30
2018-08-06T00:05:56.217Z,18.20
2018-08-06T00:08:24.843Z,18.20
2018-08-06T00:10:53.603Z,18.20
2018-08-06T00:13:22.241Z,18.10
2018-08-06T00:15:51.011Z,18.10
2018-08-06T00:18:19.661Z,18.10
2018-08-06T00:20:48.370Z,18.10
2018-08-06T00:23:16.976Z,18.10
2018-08-06T00:28:13.861Z,18.00
2018-08-06T00:30:42.490Z,17.90
2018-08-06T00:33:11.453Z,17.90
2018-08-06T00:35:40.055Z,17.90
2018-08-06T00:38:08.719Z,17.90
2018-08-06T00:40:37.431Z,17.90
2018-08-06T00:43:06.345Z,18.00
2018-08-06T00:45:35.052Z,17.90
2018-08-06T00:48:03.715Z,17.80
2018-08-06T00:50:32.457Z,17.90
2018-08-06T00:53:01.514Z,17.70
2018-08-06T00:55:30.181Z,17.70
2018-08-06T00:57:58.745Z,17.70
2018-08-06T01:00:27.655Z,17.80
2018-08-06T01:02:56.407Z,17.80
2018-08-06T01:05:25.065Z,17.90
2018-08-06T01:07:53.695Z,17.80
2018-08-06T01:10:22.554Z,17.80
2018-08-06T01:12:51.170Z,17.80
2018-08-06T01:15:19.821Z,17.90
2018-08-06T01:17:48.469Z,17.90
2018-08-06T01:20:17.073Z,17.80
2018-08-06T01:22:46.313Z,17.70
2018-08-06T01:25:15.499Z,17.60
2018-08-06T01:27:44.178Z,17.60
2018-08-06T01:30:14.301Z,17.50
2018-08-06T01:32:43.283Z,17.40
2018-08-06T01:35:12.435Z,17.40
2018-08-06T01:37:41.173Z,17.40
2018-08-06T01:40:12.273Z,17.40
2018-08-06T01:42:41.325Z,17.30
2018-08-06T01:45:12.426Z,17.20
2018-08-06T01:47:41.247Z,17.20
2018-08-06T01:50:10.840Z,17.20
2018-08-06T01:52:39.635Z,17.10
2018-08-06T01:55:08.280Z,17.20
2018-08-06T01:57:36.937Z,17.20
2018-08-06T02:00:14.722Z,17.20
2018-08-06T02:02:43.405Z,17.10
2018-08-06T02:05:12.401Z,17.00
2018-08-06T02:07:41.367Z,17.00
2018-08-06T02:10:12.564Z,16.90
2018-08-06T02:12:41.783Z,17.00
2018-08-06T02:15:11.464Z,17.00
2018-08-06T02:17:40.381Z,17.00
2018-08-06T02:20:12.106Z,16.90
2018-08-06T02:22:40.723Z,16.90
2018-08-06T02:25:10.282Z,16.80
2018-08-06T02:27:39.008Z,16.80
2018-08-06T02:30:10.882Z,16.80
2018-08-06T02:32:40.009Z,16.80
2018-08-06T02:35:10.660Z,16.80
2018-08-06T02:37:39.496Z,16.80
2018-08-06T02:40:10.361Z,16.80
2018-08-06T02:42:38.987Z,16.80
2018-08-06T02:45:08.952Z,16.70
2018-08-06T02:47:38.077Z,16.60
2018-08-06T02:50:07.987Z,16.50
2018-08-06T02:52:36.613Z,16.50
2018-08-06T02:55:06.403Z,16.60
2018-08-06T02:57:35.133Z,16.50
2018-08-06T03:00:04.504Z,16.50
2018-08-06T03:02:33.257Z,16.50
2018-08-06T03:05:01.875Z,16.50
2018-08-06T03:09:58.995Z,16.40
2018-08-06T03:12:27.567Z,16.40
2018-08-06T03:14:56.297Z,16.30
2018-08-06T03:17:25.160Z,16.30
2018-08-06T03:19:53.811Z,16.20
2018-08-06T03:22:22.537Z,16.30
2018-08-06T03:24:51.445Z,16.20
2018-08-06T03:27:20.049Z,16.20
2018-08-06T03:32:16.929Z,16.10
2018-08-06T03:34:45.849Z,16.10
2018-08-06T03:37:14.575Z,16.20
2018-08-06T03:39:43.368Z,16.20
2018-08-06T03:42:12.035Z,16.20
2018-08-06T03:44:40.675Z,16.20
2018-08-06T03:47:09.407Z,16.10
2018-08-06T03:49:38.011Z,16.10
2018-08-06T03:54:35.143Z,16.00
2018-08-06T03:57:03.769Z,16.00
2018-08-06T03:59:32.539Z,16.00
2018-08-06T04:02:01.394Z,15.90
2018-08-06T04:04:30.166Z,15.90
2018-08-06T04:06:58.973Z,16.00
2018-08-06T04:09:27.596Z,16.00
2018-08-06T04:11:56.365Z,15.90
2018-08-06T04:14:24.949Z,15.90
2018-08-06T04:16:53.531Z,15.90
2018-08-06T04:19:22.175Z,15.90
2018-08-06T04:21:51.049Z,15.90
2018-08-06T04:24:19.649Z,15.90
2018-08-06T04:26:48.343Z,15.90
2018-08-06T04:29:16.949Z,15.90
2018-08-06T04:31:45.719Z,15.90
2018-08-06T04:34:14.355Z,16.00
2018-08-06T04:39:11.256Z,16.00
2018-08-06T04:41:40.021Z,16.00
2018-08-06T04:44:08.667Z,16.00
2018-08-06T04:46:37.441Z,16.00
2018-08-06T04:49:06.611Z,16.10
2018-08-06T04:51:35.231Z,16.10
2018-08-06T04:54:04.031Z,16.20
2018-08-06T04:59:01.100Z,16.30
2018-08-06T05:01:29.953Z,16.40
2018-08-06T05:03:58.583Z,16.50
2018-08-06T05:06:27.355Z,16.60
2018-08-06T05:08:56.014Z,16.60
2018-08-06T05:11:24.673Z,16.70
2018-08-06T05:13:53.231Z,16.80
2018-08-06T05:16:21.804Z,16.80
2018-08-06T05:18:50.590Z,16.90
2018-08-06T05:21:19.231Z,16.90
2018-08-06T05:23:56.658Z,17.00
2018-08-06T05:26:26.432Z,17.00
2018-08-06T05:28:55.048Z,17.10
2018-08-06T05:33:54.283Z,17.20
2018-08-06T05:36:23.448Z,17.30
2018-08-06T05:38:53.481Z,17.30
2018-08-06T05:41:24.257Z,17.40
2018-08-06T05:43:54.406Z,17.40
2018-08-06T05:46:23.238Z,17.50
2018-08-06T05:51:20.402Z,17.50
2018-08-06T05:56:17.231Z,17.60
2018-08-06T05:58:45.829Z,17.70
2018-08-06T06:01:14.499Z,17.70
2018-08-06T06:03:43.105Z,17.80
2018-08-06T06:06:11.933Z,17.80
2018-08-06T06:08:41.048Z,17.90
2018-08-06T06:11:10.158Z,18.00
2018-08-06T06:13:38.809Z,18.00
2018-08-06T06:16:08.705Z,18.10
2018-08-06T06:18:37.314Z,18.20
2018-08-06T06:21:05.987Z,18.20
2018-08-06T06:23:34.679Z,18.30
2018-08-06T06:26:03.318Z,18.30
2018-08-06T06:28:32.063Z,18.40
2018-08-06T06:31:00.769Z,18.50
2018-08-06T06:33:29.419Z,18.60
2018-08-06T06:35:58.117Z,18.70
2018-08-06T06:38:26.992Z,18.80
2018-08-06T06:40:55.618Z,18.80
2018-08-06T06:43:24.261Z,18.80
2018-08-06T06:45:52.909Z,18.90
2018-08-06T06:48:21.534Z,19.00
2018-08-06T06:50:50.213Z,19.00
2018-08-06T06:53:18.975Z,19.10
2018-08-06T07:00:44.201Z,19.30
2018-08-06T07:03:12.817Z,19.30
2018-08-06T07:05:41.582Z,19.30
2018-08-06T07:08:10.209Z,19.30
2018-08-06T07:10:38.815Z,19.50
2018-08-06T07:13:07.517Z,19.50
2018-08-06T07:15:36.185Z,19.60
2018-08-06T07:18:04.857Z,19.60
2018-08-06T07:20:33.826Z,19.70
2018-08-06T07:23:02.671Z,19.70
2018-08-06T07:25:31.302Z,19.70
2018-08-06T07:28:00.010Z,19.80
2018-08-06T07:30:28.703Z,19.80
2018-08-06T07:32:57.546Z,19.90
2018-08-06T07:35:26.303Z,20.00
2018-08-06T07:37:54.915Z,20.00
2018-08-06T07:40:23.523Z,20.10
2018-08-06T07:42:52.387Z,20.20
2018-08-06T07:45:21.624Z,20.30
2018-08-06T07:47:51.055Z,20.50
2018-08-06T07:52:49.186Z,20.40
2018-08-06T07:55:18.295Z,20.40
2018-08-06T07:57:47.182Z,20.50
2018-08-06T08:00:17.747Z,20.60
2018-08-06T08:02:46.804Z,20.60
2018-08-06T08:05:17.058Z,20.70
2018-08-06T08:07:47.030Z,20.70
2018-08-06T08:10:21.296Z,20.80
2018-08-06T08:12:50.038Z,20.90
2018-08-06T08:15:21.750Z,21.00
2018-08-06T08:17:50.802Z,21.00
2018-08-06T08:20:19.968Z,21.10
2018-08-06T08:22:48.591Z,21.20
2018-08-06T08:25:20.107Z,21.30
2018-08-06T08:27:48.920Z,21.30
2018-08-06T08:30:18.425Z,21.30
2018-08-06T08:32:47.332Z,21.40
2018-08-06T08:35:16.764Z,21.40
2018-08-06T08:37:45.824Z,21.50
2018-08-06T08:40:16.826Z,21.50
2018-08-06T08:42:45.979Z,21.60
2018-08-06T08:45:16.400Z,21.60
2018-08-06T08:47:45.782Z,21.70
2018-08-06T08:50:16.876Z,21.80
2018-08-06T08:55:16.057Z,21.80
2018-08-06T08:57:45.053Z,21.90
2018-08-06T09:00:18.185Z,22.00
2018-08-06T09:02:48.019Z,22.10
2018-08-06T09:05:17.445Z,22.10
2018-08-06T09:07:46.755Z,22.20
2018-08-06T09:10:16.690Z,22.20
2018-08-06T09:12:45.561Z,22.20
2018-08-06T09:15:18.665Z,22.40
2018-08-06T09:17:47.453Z,22.40
2018-08-06T09:20:16.229Z,22.50
2018-08-06T09:22:45.557Z,22.50
2018-08-06T09:25:14.644Z,22.60
2018-08-06T09:27:44.819Z,22.60
2018-08-06T09:30:15.799Z,22.70
2018-08-06T09:32:49.890Z,22.80
2018-08-06T09:35:19.280Z,22.90
2018-08-06T09:37:47.944Z,23.00
2018-08-06T09:40:18.047Z,23.10
2018-08-06T09:42:47.764Z,23.20
2018-08-06T09:45:18.118Z,23.20
2018-08-06T09:47:48.262Z,23.20
2018-08-06T09:50:17.910Z,23.30
2018-08-06T09:52:47.736Z,23.30
2018-08-06T09:55:20.027Z,23.50
2018-08-06T09:57:49.482Z,23.60
2018-08-06T10:01:27.086Z,23.60
2018-08-06T10:03:55.666Z,23.60
2018-08-06T10:06:24.418Z,23.80
2018-08-06T10:08:52.888Z,23.80
2018-08-06T10:11:21.526Z,23.90
2018-08-06T10:13:50.118Z,23.90
2018-08-06T10:16:18.718Z,24.00
2018-08-06T10:18:47.560Z,24.00
2018-08-06T10:23:45.448Z,24.20
2018-08-06T10:26:14.328Z,24.40
2018-08-06T10:28:43.047Z,24.50
2018-08-06T10:31:11.678Z,24.40
2018-08-06T10:33:40.241Z,24.40
2018-08-06T10:36:08.845Z,24.40
2018-08-06T10:38:37.423Z,24.50
2018-08-06T10:41:06.236Z,24.80
2018-08-06T10:43:34.978Z,24.80
2018-08-06T10:46:03.588Z,24.80
2018-08-06T10:48:32.283Z,24.90
2018-08-06T10:51:00.820Z,25.00
2018-08-06T10:53:29.438Z,24.90
2018-08-06T10:55:58.073Z,25.00
2018-08-06T10:58:26.912Z,25.20
2018-08-06T11:00:55.705Z,25.30
2018-08-06T11:03:24.324Z,25.20
2018-08-06T11:08:21.855Z,25.40
2018-08-06T11:10:50.436Z,25.50
2018-08-06T11:13:19.315Z,25.50
2018-08-06T11:15:48.265Z,25.70
2018-08-06T11:18:17.129Z,25.80
2018-08-06T11:20:46.425Z,25.90
2018-08-06T11:23:14.968Z,25.90
2018-08-06T11:25:43.867Z,26.00
2018-08-06T11:28:12.561Z,26.10
2018-08-06T11:30:41.821Z,26.20
2018-08-06T11:33:10.385Z,26.30
2018-08-06T11:35:39.015Z,26.20
2018-08-06T11:38:07.614Z,26.30
2018-08-06T11:40:36.384Z,26.40
2018-08-06T11:43:05.284Z,26.40
2018-08-06T11:45:34.013Z,26.40
2018-08-06T11:48:02.597Z,26.50
2018-08-06T11:50:31.324Z,26.70
2018-08-06T11:53:00.700Z,26.80
2018-08-06T11:55:29.314Z,26.70
2018-08-06T11:57:57.898Z,26.70
2018-08-06T12:00:27.653Z,26.80
2018-08-06T12:02:56.797Z,27.00
2018-08-06T12:05:25.570Z,27.50
2018-08-06T12:07:54.169Z,27.60
2018-08-06T12:10:22.726Z,27.60
2018-08-06T12:12:51.417Z,27.80
2018-08-06T12:15:20.023Z,27.80
2018-08-06T12:17:49.024Z,28.00
2018-08-06T12:20:19.030Z,28.30
2018-08-06T12:22:48.846Z,28.10
2018-08-06T12:25:18.040Z,28.30
2018-08-06T12:27:47.666Z,28.80
2018-08-06T12:30:21.116Z,29.00
2018-08-06T12:32:50.548Z,28.80
2018-08-06T12:35:19.438Z,28.80
2018-08-06T12:37:48.719Z,28.90
2018-08-06T12:40:18.589Z,28.60
2018-08-06T12:42:47.308Z,28.70
2018-08-06T12:47:45.562Z,29.40
2018-08-06T12:50:15.665Z,29.60
2018-08-06T12:52:44.728Z,29.80
2018-08-06T12:55:14.608Z,29.70
2018-08-06T12:57:43.974Z,29.50
2018-08-06T13:00:18.767Z,29.40
2018-08-06T13:02:48.116Z,30.10
2018-08-06T13:05:17.204Z,29.80
2018-08-06T13:07:45.882Z,30.30
2018-08-06T13:10:14.963Z,30.30
2018-08-06T13:12:44.112Z,30.60
2018-08-06T13:15:13.889Z,30.30
2018-08-06T13:17:42.649Z,30.80
2018-08-06T13:20:11.547Z,30.50
2018-08-06T13:22:40.206Z,30.90
2018-08-06T13:25:10.631Z,31.20
2018-08-06T13:27:39.279Z,31.40
2018-08-06T13:30:11.200Z,31.30
2018-08-06T13:32:39.839Z,31.80
2018-08-06T13:40:06.112Z,32.90
2018-08-06T13:45:03.273Z,32.90
2018-08-06T13:50:00.244Z,33.00
2018-08-06T13:54:57.208Z,33.80
2018-08-06T13:59:54.214Z,34.40
2018-08-06T14:02:23.104Z,34.40
2018-08-06T14:04:51.682Z,34.50
2018-08-06T14:07:20.586Z,34.50
2018-08-06T14:09:49.357Z,34.70
2018-08-06T14:12:18.020Z,34.70
2018-08-06T14:14:46.680Z,35.00
2018-08-06T14:19:43.722Z,35.50
2018-08-06T14:22:12.480Z,35.20
2018-08-06T14:24:41.098Z,35.30
2018-08-06T14:27:09.821Z,35.70
2018-08-06T14:29:38.500Z,35.70
2018-08-06T14:32:07.206Z,35.70
2018-08-06T14:34:35.990Z,36.10
2018-08-06T14:37:04.566Z,36.00
2018-08-06T14:39:33.132Z,36.00
2018-08-06T14:46:58.318Z,35.30
2018-08-06T14:49:27.059Z,35.20
2018-08-06T14:54:24.086Z,35.30
2018-08-06T14:56:52.774Z,35.20
2018-08-06T14:59:21.475Z,35.60
2018-08-06T15:01:50.212Z,35.50
2018-08-06T15:04:18.912Z,35.70
2018-08-06T15:06:47.689Z,35.80
2018-08-06T15:09:16.479Z,35.70
2018-08-06T15:11:45.091Z,35.50
2018-08-06T15:14:13.632Z,35.30
2018-08-06T15:16:42.192Z,35.30
2018-08-06T15:19:10.744Z,35.30
2018-08-06T15:21:39.377Z,35.40
2018-08-06T15:24:08.019Z,36.00
2018-08-06T15:26:36.636Z,36.00
2018-08-06T15:29:05.499Z,35.70
2018-08-06T15:31:34.239Z,35.80
2018-08-06T15:34:02.895Z,36.00
2018-08-06T15:36:31.964Z,35.80
2018-08-06T15:39:00.625Z,36.00
2018-08-06T15:41:29.286Z,35.90
2018-08-06T15:43:57.923Z,35.80
2018-08-06T15:46:26.601Z,35.60
2018-08-06T15:48:55.268Z,35.60
2018-08-06T15:51:24.031Z,35.40
2018-08-06T15:53:52.766Z,35.50
2018-08-06T15:56:21.411Z,35.90
2018-08-06T15:58:50.103Z,36.20
2018-08-06T16:01:18.806Z,36.70
2018-08-06T16:03:47.617Z,36.90
2018-08-06T16:06:16.166Z,36.50
2018-08-06T16:08:45.076Z,36.60
2018-08-06T16:11:13.806Z,36.60
2018-08-06T16:13:42.494Z,36.70
2018-08-06T16:16:11.351Z,36.80
2018-08-06T16:18:41.212Z,36.60
2018-08-06T16:21:09.898Z,36.40
2018-08-06T16:23:38.588Z,36.10
2018-08-06T16:26:07.268Z,35.90
2018-08-06T16:28:35.884Z,35.80
2018-08-06T16:31:04.919Z,35.60
2018-08-06T16:33:33.844Z,35.70
2018-08-06T16:36:02.488Z,35.50
2018-08-06T16:38:31.288Z,35.60
2018-08-06T16:40:59.932Z,35.60
2018-08-06T16:43:28.700Z,35.70
2018-08-06T16:45:57.356Z,35.80
2018-08-06T16:48:26.642Z,35.50
2018-08-06T16:50:55.425Z,35.50
2018-08-06T16:53:24.402Z,35.20
2018-08-06T16:55:53.047Z,35.10
2018-08-06T16:58:21.770Z,35.10
2018-08-06T17:00:50.652Z,35.00
2018-08-06T17:03:19.320Z,35.00
2018-08-06T17:05:47.976Z,34.80
2018-08-06T17:08:16.800Z,34.80
2018-08-06T17:10:45.586Z,34.70
2018-08-06T17:13:14.249Z,34.60
2018-08-06T17:15:42.901Z,34.60
2018-08-06T17:18:11.612Z,34.50
2018-08-06T17:20:40.243Z,34.30
2018-08-06T17:23:09.018Z,34.10
2018-08-06T17:25:37.990Z,34.10
2018-08-06T17:28:06.807Z,34.00
2018-08-06T17:33:04.032Z,33.80
2018-08-06T17:35:32.665Z,33.80
2018-08-06T17:40:29.633Z,33.60
2018-08-06T17:47:55.048Z,33.30
2018-08-06T17:50:24.195Z,33.30
2018-08-06T17:52:53.599Z,33.30
2018-08-06T17:55:23.621Z,33.20
2018-08-06T17:57:52.417Z,33.20
2018-08-06T18:00:21.427Z,33.10
2018-08-06T18:02:50.123Z,33.00
2018-08-06T18:05:19.372Z,32.90
2018-08-06T18:07:48.123Z,32.70
2018-08-06T18:10:17.579Z,32.50
2018-08-06T18:12:46.857Z,32.40
2018-08-06T18:15:15.701Z,32.20
2018-08-06T18:17:44.567Z,32.10
2018-08-06T18:20:15.845Z,32.00
2018-08-06T18:22:44.681Z,31.80
2018-08-06T18:25:15.208Z,31.70
2018-08-06T18:27:44.913Z,31.60
2018-08-06T18:30:16.483Z,31.60
2018-08-06T18:32:45.122Z,31.50
2018-08-06T18:37:44.376Z,31.40
2018-08-06T18:40:13.854Z,31.00
2018-08-06T18:45:14.396Z,30.20
2018-08-06T18:47:44.035Z,29.90
2018-08-06T18:50:13.758Z,29.80
2018-08-06T18:52:43.423Z,29.60
2018-08-06T18:55:12.969Z,29.40
2018-08-06T18:57:42.115Z,29.30
2018-08-06T19:00:17.014Z,28.80
2018-08-06T19:02:45.753Z,28.80
2018-08-06T19:07:43.138Z,28.40
2018-08-06T19:10:12.454Z,28.20
2018-08-06T19:12:46.363Z,28.20
2018-08-06T19:15:15.116Z,28.20
2018-08-06T19:17:49.208Z,28.00
2018-08-06T19:20:18.142Z,27.90
2018-08-06T19:22:46.955Z,27.80
2018-08-06T19:25:20.887Z,27.60
2018-08-06T19:27:49.650Z,27.50
2018-08-06T19:30:18.401Z,27.50
2018-08-06T19:32:47.177Z,27.40
2018-08-06T19:37:47.787Z,27.20
2018-08-06T19:40:16.477Z,27.20
2018-08-06T19:42:50.453Z,27.00
2018-08-06T19:45:19.198Z,26.90
2018-08-06T19:47:47.842Z,26.90
2018-08-06T19:50:22.050Z,26.70
2018-08-06T19:52:50.803Z,26.60
2018-08-06T19:55:24.795Z,26.50
2018-08-06T20:02:50.244Z,26.10
2018-08-06T20:05:18.887Z,26.10
2018-08-06T20:07:47.486Z,26.10
2018-08-06T20:10:16.327Z,26.00
2018-08-06T20:12:45.125Z,26.00
2018-08-06T20:15:16.137Z,25.90
2018-08-06T20:17:44.771Z,25.80
2018-08-06T20:20:13.473Z,25.70
2018-08-06T20:22:42.683Z,25.70
2018-08-06T20:25:20.665Z,25.60
2018-08-06T20:27:50.111Z,25.60
2018-08-06T20:30:20.542Z,25.50
2018-08-06T20:32:49.591Z,25.50
2018-08-06T20:35:18.844Z,25.30
2018-08-06T20:37:47.465Z,25.20
2018-08-06T20:40:16.217Z,25.10
2018-08-06T20:42:48.847Z,25.10
2018-08-06T20:45:19.098Z,25.10
2018-08-06T20:47:47.909Z,25.10
2018-08-06T20:50:18.037Z,25.00
2018-08-06T20:52:47.727Z,24.90
2018-08-06T20:55:16.462Z,24.90
2018-08-06T20:57:45.420Z,24.90
2018-08-06T21:00:18.611Z,24.90
2018-08-06T21:02:48.267Z,24.80
2018-08-06T21:05:17.087Z,24.80
2018-08-06T21:07:45.792Z,24.80
2018-08-06T21:10:15.520Z,24.70
2018-08-06T21:12:44.399Z,24.70
2018-08-06T21:15:14.079Z,24.70
2018-08-06T21:17:43.172Z,24.60
2018-08-06T21:20:14.048Z,24.50
2018-08-06T21:22:44.426Z,24.50
2018-08-06T21:27:43.123Z,24.40
2018-08-06T21:30:14.196Z,24.30
2018-08-06T21:32:46.144Z,24.30
2018-08-06T21:35:15.470Z,24.20
2018-08-06T21:37:44.157Z,24.20
2018-08-06T21:40:12.811Z,24.20
2018-08-06T21:42:41.387Z,24.20
2018-08-06T21:47:38.455Z,24.00
2018-08-06T21:50:07.860Z,24.10
2018-08-06T21:52:36.614Z,24.10
2018-08-06T21:55:06.025Z,24.00
2018-08-06T21:57:35.049Z,23.90
2018-08-06T22:00:04.212Z,23.90
2018-08-06T22:02:32.861Z,23.80
2018-08-06T22:05:01.710Z,23.80
2018-08-06T22:07:30.506Z,23.80
2018-08-06T22:09:59.124Z,23.80
2018-08-06T22:12:27.705Z,23.80
2018-08-06T22:14:56.324Z,23.80
2018-08-06T22:17:25.135Z,23.80
2018-08-06T22:19:53.734Z,23.80
2018-08-06T22:22:22.399Z,23.70
2018-08-06T22:24:51.217Z,23.60
2018-08-06T22:27:19.972Z,23.60
2018-08-06T22:29:48.555Z,23.50
2018-08-06T22:32:17.170Z,23.60
2018-08-06T22:34:45.897Z,23.50
2018-08-06T22:37:14.486Z,23.50
2018-08-06T22:39:43.365Z,23.40
2018-08-06T22:42:12.145Z,23.40
2018-08-06T22:44:40.683Z,23.40
2018-08-06T22:47:09.467Z,23.30
2018-08-06T22:49:38.038Z,23.40
2018-08-06T22:52:07.132Z,23.40
2018-08-06T22:54:36.021Z,23.30
2018-08-06T22:57:04.887Z,23.20
2018-08-06T22:59:33.453Z,23.10
2018-08-06T23:02:02.013Z,23.10
2018-08-06T23:04:30.669Z,23.20
2018-08-06T23:06:59.423Z,23.20
2018-08-06T23:09:28.061Z,23.10
2018-08-06T23:11:56.813Z,23.00
2018-08-06T23:16:53.793Z,23.00
2018-08-06T23:19:22.670Z,22.90
2018-08-06T23:24:19.521Z,22.80
2018-08-06T23:26:48.281Z,22.80
2018-08-06T23:29:17.004Z,22.70
2018-08-06T23:34:13.851Z,22.60
2018-08-06T23:36:42.477Z,22.60
2018-08-06T23:39:11.354Z,22.60
2018-08-06T23:41:40.069Z,22.50
2018-08-06T23:44:08.693Z,22.50
2018-08-06T23:46:37.556Z,22.50
2018-08-06T23:49:06.121Z,22.50
2018-08-06T23:51:34.651Z,22.50
2018-08-06T23:54:03.452Z,22.50
2018-08-06T23:56:32.133Z,22.40
2018-08-06T23:59:00.759Z,22.40
